Time;durP1;ratioP1;P1;durP2;ratioP2;P2;SDS_P1;SDS_P2;PMS_P1;PMS_P2;Temp;Humidity;BMP_temperature;BMP_pressure;BME280_temperature;BME280_humidity;BME280_pressure;Samples;Min_cycle;Max_cycle;Signal;HPM_P1;HPM_P2
2021/09/02 00:01:18;;;;;;;;;;;18.80;99.90;;;;;;5072129;28;19916;-51
2021/09/02 00:04:23;;;;;;;;;;;18.70;99.90;;;;;;5071132;28;19915;-52
2021/09/02 00:07:27;;;;;;;;;;;18.70;99.90;;;;;;5070503;28;19924;-51
2021/09/02 00:10:32;;;;;;;;;;;18.60;99.90;;;;;;5072239;28;20294;-50
2021/09/02 00:13:36;;;;;;;;;;;18.60;99.90;;;;;;5071428;28;19915;-53
2021/09/02 00:16:41;;;;;;;;;;;18.60;99.90;;;;;;5070690;28;19916;-51
2021/09/02 00:19:46;;;;;;;;;;;18.70;99.90;;;;;;5072119;28;19919;-53
2021/09/02 00:22:49;;;;;;;;;;;18.70;99.90;;;;;;5071249;28;19915;-53
2021/09/02 00:25:53;;;;;;;;;;;18.60;99.90;;;;;;5070935;28;19916;-50
2021/09/02 00:28:58;;;;;;;;;;;18.50;99.90;;;;;;5071583;28;19908;-53
2021/09/02 00:32:03;;;;;;;;;;;18.40;99.90;;;;;;5071555;28;19923;-53
2021/09/02 00:35:07;;;;;;;;;;;18.30;99.90;;;;;;5070537;28;19919;-51
2021/09/02 00:38:11;;;;;;;;;;;18.30;99.90;;;;;;5070786;28;19927;-54
2021/09/02 00:41:15;;;;;;;;;;;18.30;99.90;;;;;;5071675;28;19931;-53
2021/09/02 00:44:39;;;;;;;;;;;18.20;99.90;;;;;;5070416;28;19932;-51
2021/09/02 00:47:43;;;;;;;;;;;18.20;99.90;;;;;;5070548;28;20393;-51
2021/09/02 00:50:48;;;;;;;;;;;18.10;99.90;;;;;;5071879;28;19924;-53
2021/09/02 00:53:54;;;;;;;;;;;18.10;99.90;;;;;;5071103;28;19924;-54
2021/09/02 00:56:58;;;;;;;;;;;18.10;99.90;;;;;;5070481;28;20282;-51
2021/09/02 01:00:13;;;;;;;;;;;18.00;99.90;;;;;;5071732;28;19919;-52
2021/09/02 01:03:18;;;;;;;;;;;18.00;99.90;;;;;;5071590;28;19916;-50
2021/09/02 01:06:22;;;;;;;;;;;18.00;99.90;;;;;;5071008;28;19915;-53
2021/09/02 01:09:27;;;;;;;;;;;18.00;99.90;;;;;;5071089;28;20329;-53
2021/09/02 01:12:35;;;;;;;;;;;17.90;99.90;;;;;;5071491;28;19919;-51
2021/09/02 01:15:39;;;;;;;;;;;17.90;99.90;;;;;;5069439;28;19915;-56
2021/09/02 01:18:43;;;;;;;;;;;17.90;99.90;;;;;;5070218;28;20285;-51
2021/09/02 01:21:50;;;;;;;;;;;18.00;99.90;;;;;;5071065;28;19919;-51
2021/09/02 01:24:55;;;;;;;;;;;18.00;99.90;;;;;;5069570;28;19920;-50
2021/09/02 01:28:01;;;;;;;;;;;18.00;99.90;;;;;;5069353;28;19923;-52
2021/09/02 01:31:04;;;;;;;;;;;18.00;99.90;;;;;;5070338;28;19920;-53
2021/09/02 01:34:08;;;;;;;;;;;17.90;99.90;;;;;;5066009;28;19915;-52
2021/09/02 01:37:12;;;;;;;;;;;17.80;99.90;;;;;;5068986;28;19913;-51
2021/09/02 01:40:17;;;;;;;;;;;17.80;99.90;;;;;;5070745;28;19908;-52
2021/09/02 01:43:21;;;;;;;;;;;17.80;99.90;;;;;;5069714;28;19915;-51
2021/09/02 01:46:26;;;;;;;;;;;17.70;99.90;;;;;;5069219;28;19936;-52
2021/09/02 01:49:29;;;;;;;;;;;17.70;99.90;;;;;;5069920;28;20386;-52
2021/09/02 01:52:33;;;;;;;;;;;17.80;99.90;;;;;;5069523;28;19935;-51
2021/09/02 01:55:38;;;;;;;;;;;17.90;99.90;;;;;;5069032;28;19923;-52
2021/09/02 01:58:42;;;;;;;;;;;17.80;99.90;;;;;;5069202;28;20424;-50
2021/09/02 02:01:45;;;;;;;;;;;17.80;99.90;;;;;;5069933;28;19908;-51
2021/09/02 02:04:51;;;;;;;;;;;17.70;99.90;;;;;;5069268;28;20381;-51
2021/09/02 02:07:55;;;;;;;;;;;17.60;99.90;;;;;;5056998;28;19912;-54
2021/09/02 02:10:59;;;;;;;;;;;17.50;99.90;;;;;;5069818;28;19920;-54
2021/09/02 02:14:03;;;;;;;;;;;17.50;99.90;;;;;;5068823;28;20302;-56
2021/09/02 02:17:07;;;;;;;;;;;17.50;99.90;;;;;;5068809;28;19959;-54
2021/09/02 02:20:12;;;;;;;;;;;17.40;99.90;;;;;;5070012;28;19916;-50
2021/09/02 02:23:17;;;;;;;;;;;17.40;99.90;;;;;;5068735;28;20366;-53
2021/09/02 02:26:22;;;;;;;;;;;17.50;99.90;;;;;;5068221;28;21306;-54
2021/09/02 02:29:27;;;;;;;;;;;17.50;99.90;;;;;;5069687;28;19915;-51
2021/09/02 02:32:32;;;;;;;;;;;17.40;99.90;;;;;;5068113;28;19916;-52
2021/09/02 02:35:36;;;;;;;;;;;17.40;99.90;;;;;;5067885;28;19915;-51
2021/09/02 02:38:40;;;;;;;;;;;17.30;99.90;;;;;;5069291;28;19919;-53
2021/09/02 02:41:44;;;;;;;;;;;17.20;99.90;;;;;;5068746;28;19919;-50
2021/09/02 02:44:48;;;;;;;;;;;17.20;99.90;;;;;;5067910;28;19915;-49
2021/09/02 02:47:55;;;;;;;;;;;17.20;99.90;;;;;;5065751;28;19931;-52
2021/09/02 02:50:59;;;;;;;;;;;17.20;99.90;;;;;;5069357;28;19912;-50
2021/09/02 02:54:02;;;;;;;;;;;17.10;99.90;;;;;;5067959;28;19919;-52
2021/09/02 02:57:07;;;;;;;;;;;17.00;99.90;;;;;;5069188;28;19924;-52
2021/09/02 03:00:11;;;;;;;;;;;17.10;99.90;;;;;;5069211;28;19916;-52
2021/09/02 03:03:14;;;;;;;;;;;17.10;99.90;;;;;;5068427;28;19943;-52
2021/09/02 03:06:18;;;;;;;;;;;17.10;99.90;;;;;;5068910;28;20014;-53
2021/09/02 03:09:23;;;;;;;;;;;17.00;99.90;;;;;;5068993;28;19915;-51
2021/09/02 03:12:27;;;;;;;;;;;16.90;99.90;;;;;;5079056;28;19919;-51
2021/09/02 03:15:32;;;;;;;;;;;16.90;99.90;;;;;;5068290;28;19966;-53
2021/09/02 03:18:36;;;;;;;;;;;16.90;99.90;;;;;;5069108;28;20299;-50
2021/09/02 03:21:40;;;;;;;;;;;16.90;99.90;;;;;;5068625;28;20370;-50
2021/09/02 03:24:44;;;;;;;;;;;17.00;99.90;;;;;;5068114;28;19919;-53
2021/09/02 03:27:48;;;;;;;;;;;17.00;99.90;;;;;;5069432;28;19914;-54
2021/09/02 03:30:53;;;;;;;;;;;17.00;99.90;;;;;;5067933;28;19936;-54
2021/09/02 03:33:56;;;;;;;;;;;16.90;99.90;;;;;;5068329;28;20472;-50
2021/09/02 03:37:00;;;;;;;;;;;16.80;99.90;;;;;;5069497;28;19967;-50
2021/09/02 03:40:05;;;;;;;;;;;16.80;99.90;;;;;;5071575;28;19912;-50
2021/09/02 03:43:09;;;;;;;;;;;16.90;99.90;;;;;;5071582;28;19915;-55
2021/09/02 03:46:14;;;;;;;;;;;16.90;99.90;;;;;;5072146;28;19924;-50
2021/09/02 03:49:18;;;;;;;;;;;17.00;99.90;;;;;;5072367;28;19916;-50
2021/09/02 03:52:22;;;;;;;;;;;17.10;99.90;;;;;;5070968;28;19912;-51
2021/09/02 03:55:26;;;;;;;;;;;17.10;99.90;;;;;;5071890;28;19916;-50
2021/09/02 03:58:30;;;;;;;;;;;17.10;99.90;;;;;;5072374;28;19935;-50
2021/09/02 04:01:36;;;;;;;;;;;17.10;99.90;;;;;;5071048;28;19915;-50
2021/09/02 04:04:40;;;;;;;;;;;17.10;99.90;;;;;;5071281;28;19915;-50
2021/09/02 04:07:45;;;;;;;;;;;17.10;99.90;;;;;;5072355;28;19919;-51
2021/09/02 04:10:49;;;;;;;;;;;17.00;99.90;;;;;;5070592;28;19967;-50
2021/09/02 04:13:53;;;;;;;;;;;17.00;99.90;;;;;;5071099;28;19923;-51
2021/09/02 04:16:57;;;;;;;;;;;16.80;99.90;;;;;;5072601;28;20294;-51
2021/09/02 04:20:01;;;;;;;;;;;16.70;99.90;;;;;;5071078;28;19918;-51
2021/09/02 04:23:06;;;;;;;;;;;16.60;99.90;;;;;;5058204;28;19915;-51
2021/09/02 04:26:10;;;;;;;;;;;16.50;99.90;;;;;;5072131;28;19923;-51
2021/09/02 04:29:14;;;;;;;;;;;16.40;99.90;;;;;;5058837;28;20267;-51
2021/09/02 04:32:18;;;;;;;;;;;16.30;99.90;;;;;;5069528;28;19920;-50
2021/09/02 04:35:22;;;;;;;;;;;16.20;99.90;;;;;;5071593;28;19919;-56
2021/09/02 04:38:26;;;;;;;;;;;16.20;99.90;;;;;;5071575;28;19908;-50
2021/09/02 04:41:31;;;;;;;;;;;16.20;99.90;;;;;;5069953;28;19919;-50
2021/09/02 04:44:34;;;;;;;;;;;16.20;99.90;;;;;;5071137;28;19939;-51
2021/09/02 04:47:39;;;;;;;;;;;16.20;99.90;;;;;;5071611;28;19919;-53
2021/09/02 04:50:45;;;;;;;;;;;16.40;99.90;;;;;;5069047;28;20306;-51
2021/09/02 04:53:49;;;;;;;;;;;16.40;99.90;;;;;;5070500;28;19920;-52
2021/09/02 04:56:53;;;;;;;;;;;16.30;99.90;;;;;;5071437;28;19931;-50
2021/09/02 04:59:57;;;;;;;;;;;16.40;99.90;;;;;;5069701;28;19915;-52
2021/09/02 05:03:01;;;;;;;;;;;16.50;99.90;;;;;;5070054;28;19915;-50
2021/09/02 05:06:05;;;;;;;;;;;16.50;99.90;;;;;;5071252;28;19931;-50
2021/09/02 05:09:09;;;;;;;;;;;16.60;99.90;;;;;;5070498;28;20310;-50
2021/09/02 05:12:14;;;;;;;;;;;16.70;99.90;;;;;;5069403;28;19923;-51
2021/09/02 05:15:18;;;;;;;;;;;16.70;99.90;;;;;;5071130;28;20286;-52
2021/09/02 05:18:22;;;;;;;;;;;16.50;99.90;;;;;;5070336;28;20665;-52
2021/09/02 05:21:26;;;;;;;;;;;16.40;99.90;;;;;;5068896;28;19920;-50
2021/09/02 05:24:31;;;;;;;;;;;16.30;99.90;;;;;;5070790;28;19915;-53
2021/09/02 05:27:35;;;;;;;;;;;16.20;99.90;;;;;;5070411;28;19916;-52
2021/09/02 05:30:40;;;;;;;;;;;18.10;99.90;;;;;;5068675;28;19923;-50
2021/09/02 05:33:43;;;;;;;;;;;21.40;99.90;;;;;;5070252;28;19952;-50
2021/09/02 05:36:47;;;;;;;;;;;24.20;99.90;;;;;;5070448;28;19931;-53
2021/09/02 05:39:52;;;;;;;;;;;26.10;95.90;;;;;;5056924;28;19927;-52
2021/09/02 05:42:56;;;;;;;;;;;27.70;92.30;;;;;;5069672;28;20390;-53
2021/09/02 05:45:59;;;;;;;;;;;28.90;90.40;;;;;;5070532;28;19963;-51
2021/09/02 05:49:04;;;;;;;;;;;29.60;87.70;;;;;;5068392;28;19987;-52
2021/09/02 05:52:08;;;;;;;;;;;30.20;84.80;;;;;;5068499;28;19935;-53
2021/09/02 05:55:12;;;;;;;;;;;30.80;81.50;;;;;;5069730;28;20759;-53
2021/09/02 05:58:17;;;;;;;;;;;31.30;79.50;;;;;;5068372;28;19920;-54
2021/09/02 06:01:20;;;;;;;;;;;31.50;77.60;;;;;;5067257;28;19923;-54
2021/09/02 06:04:24;;;;;;;;;;;31.40;75.30;;;;;;5067133;28;19908;-52
2021/09/02 06:07:28;;;;;;;;;;;31.10;75.50;;;;;;5067745;28;19934;-53
2021/09/02 06:10:33;;;;;;;;;;;30.20;76.80;;;;;;5068992;28;19935;-53
2021/09/02 06:13:37;;;;;;;;;;;30.60;75.90;;;;;;5069203;28;19915;-54
2021/09/02 06:16:41;;;;;;;;;;;30.80;75.40;;;;;;5067965;28;19915;-55
2021/09/02 06:19:45;;;;;;;;;;;31.40;75.10;;;;;;5068686;28;20310;-56
2021/09/02 06:22:49;;;;;;;;;;;29.20;76.40;;;;;;5068742;28;19919;-59
2021/09/02 06:25:53;;;;;;;;;;;28.10;79.10;;;;;;5070336;28;19915;-54
2021/09/02 06:28:57;;;;;;;;;;;28.00;80.90;;;;;;5068383;28;19926;-56
2021/09/02 06:32:02;;;;;;;;;;;29.70;79.20;;;;;;5056737;28;19920;-56
2021/09/02 06:35:07;;;;;;;;;;;30.70;77.60;;;;;;5069464;28;19979;-54
2021/09/02 06:38:11;;;;;;;;;;;32.00;75.30;;;;;;5066703;28;19926;-54
2021/09/02 06:41:15;;;;;;;;;;;32.20;73.10;;;;;;5068812;28;20572;-56
2021/09/02 06:44:19;;;;;;;;;;;30.60;71.60;;;;;;5069321;28;19920;-54
2021/09/02 06:47:23;;;;;;;;;;;31.50;71.00;;;;;;5066636;28;19936;-55
2021/09/02 06:50:27;;;;;;;;;;;28.30;77.60;;;;;;5067688;28;20321;-54
2021/09/02 06:53:32;;;;;;;;;;;28.10;79.10;;;;;;5069253;28;19919;-54
2021/09/02 06:56:36;;;;;;;;;;;28.80;79.20;;;;;;5067719;28;19916;-58
2021/09/02 06:59:40;;;;;;;;;;;28.70;77.80;;;;;;5067729;28;19959;-51
2021/09/02 07:02:44;;;;;;;;;;;30.30;75.50;;;;;;5069017;28;20424;-53
2021/09/02 07:05:48;;;;;;;;;;;29.10;76.80;;;;;;5053878;28;19916;-52
2021/09/02 07:08:53;;;;;;;;;;;28.80;75.80;;;;;;5068673;28;19919;-54
2021/09/02 07:11:58;;;;;;;;;;;30.10;73.80;;;;;;5068248;28;19919;-54
2021/09/02 07:15:02;;;;;;;;;;;30.40;72.40;;;;;;5072126;28;19919;-56
2021/09/02 07:18:06;;;;;;;;;;;30.00;71.40;;;;;;5072534;28;19931;-53
2021/09/02 07:21:10;;;;;;;;;;;29.90;71.50;;;;;;5066969;28;20283;-53
2021/09/02 07:24:14;;;;;;;;;;;30.40;70.50;;;;;;5068881;28;19915;-54
2021/09/02 07:27:18;;;;;;;;;;;30.60;68.70;;;;;;5072178;28;19915;-53
2021/09/02 07:30:22;;;;;;;;;;;31.00;67.60;;;;;;5059983;28;19924;-55
2021/09/02 07:33:26;;;;;;;;;;;30.60;64.90;;;;;;5071650;28;19927;-57
2021/09/02 07:36:30;;;;;;;;;;;30.30;66.70;;;;;;5071259;28;19936;-56
2021/09/02 07:39:37;;;;;;;;;;;29.10;70.00;;;;;;5070092;28;19932;-56
2021/09/02 07:42:41;;;;;;;;;;;29.90;70.30;;;;;;5071785;28;20322;-55
2021/09/02 07:45:46;;;;;;;;;;;29.90;69.50;;;;;;5069832;28;20010;-52
2021/09/02 07:48:50;;;;;;;;;;;30.70;68.50;;;;;;5072013;28;19923;-53
2021/09/02 07:51:55;;;;;;;;;;;31.20;68.50;;;;;;5072074;28;19919;-53
2021/09/02 07:54:59;;;;;;;;;;;31.10;66.90;;;;;;5071051;28;20401;-55
2021/09/02 07:58:03;;;;;;;;;;;31.20;66.70;;;;;;5068988;28;19930;-52
2021/09/02 08:01:10;;;;;;;;;;;33.30;64.80;;;;;;5072167;28;20570;-53
2021/09/02 08:04:14;;;;;;;;;;;32.30;65.60;;;;;;5071359;28;20294;-52
2021/09/02 08:07:18;;;;;;;;;;;33.60;63.40;;;;;;5071017;28;19930;-53
2021/09/02 08:10:24;;;;;;;;;;;34.20;64.20;;;;;;5071266;28;19931;-57
2021/09/02 08:13:28;;;;;;;;;;;35.10;64.10;;;;;;5071294;28;20058;-53
2021/09/02 08:16:33;;;;;;;;;;;33.70;63.30;;;;;;5066542;28;19916;-53
2021/09/02 08:19:37;;;;;;;;;;;35.70;61.90;;;;;;5080917;28;19920;-58
2021/09/02 08:22:41;;;;;;;;;;;34.30;62.30;;;;;;5039329;28;19919;-56
2021/09/02 08:25:45;;;;;;;;;;;35.70;61.80;;;;;;5077964;28;19919;-52
2021/09/02 08:28:49;;;;;;;;;;;33.90;62.80;;;;;;5061230;28;19916;-59
2021/09/02 08:31:54;;;;;;;;;;;33.50;63.40;;;;;;5071593;28;19919;-53
2021/09/02 08:34:59;;;;;;;;;;;35.60;61.60;;;;;;5070376;28;19919;-57
2021/09/02 08:38:07;;;;;;;;;;;38.00;59.30;;;;;;5065287;28;20297;-57
2021/09/02 08:41:22;;;;;;;;;;;38.30;56.80;;;;;;5064084;28;19915;-53
2021/09/02 08:44:26;;;;;;;;;;;38.00;56.50;;;;;;5068762;28;19912;-54
2021/09/02 08:47:30;;;;;;;;;;;39.50;55.50;;;;;;5070263;28;19916;-52
2021/09/02 08:50:34;;;;;;;;;;;40.40;53.90;;;;;;5058722;28;19915;-53
2021/09/02 08:53:39;;;;;;;;;;;40.50;53.00;;;;;;5070765;28;19913;-53
2021/09/02 08:56:43;;;;;;;;;;;40.70;53.10;;;;;;5069148;28;19927;-58
2021/09/02 08:59:47;;;;;;;;;;;41.60;52.00;;;;;;5069779;28;19915;-57
2021/09/02 09:03:02;;;;;;;;;;;36.10;54.20;;;;;;5072484;28;19916;-57
2021/09/02 09:06:09;;;;;;;;;;;38.00;55.20;;;;;;5066670;28;20397;-55
2021/09/02 09:09:17;;;;;;;;;;;36.60;54.60;;;;;;5055172;28;19920;-53
2021/09/02 09:12:34;;;;;;;;;;;34.50;55.80;;;;;;5062255;28;19919;-53
2021/09/02 09:15:41;;;;;;;;;;;33.50;56.50;;;;;;5067246;28;20365;-53
2021/09/02 09:18:45;;;;;;;;;;;35.30;56.20;;;;;;5068707;28;19916;-55
2021/09/02 09:21:59;;;;;;;;;;;35.00;55.80;;;;;;5070061;28;19919;-54
2021/09/02 09:25:04;;;;;;;;;;;36.50;55.20;;;;;;5070081;28;19908;-53
2021/09/02 09:28:09;;;;;;;;;;;39.20;52.80;;;;;;5069242;28;19915;-53
2021/09/02 09:31:32;;;;;;;;;;;37.70;53.30;;;;;;5069980;28;20401;-53
2021/09/02 09:34:35;;;;;;;;;;;40.90;52.90;;;;;;5063086;28;19919;-53
2021/09/02 09:37:40;;;;;;;;;;;43.10;48.70;;;;;;5066902;28;20616;-56
2021/09/02 09:40:52;;;;;;;;;;;42.50;48.30;;;;;;5065225;28;19923;-54
2021/09/02 09:44:15;;;;;;;;;;;42.70;48.10;;;;;;5065580;28;19915;-58
2021/09/02 09:47:22;;;;;;;;;;;44.50;48.30;;;;;;5069887;28;19931;-54
2021/09/02 09:50:26;;;;;;;;;;;43.80;48.00;;;;;;5068486;28;19909;-55
2021/09/02 09:53:30;;;;;;;;;;;43.20;47.70;;;;;;5068570;28;19919;-61
2021/09/02 09:56:34;;;;;;;;;;;44.90;47.10;;;;;;5070802;28;19915;-54
2021/09/02 09:59:42;;;;;;;;;;;45.70;44.50;;;;;;5068806;28;19919;-57
2021/09/02 10:02:47;;;;;;;;;;;45.50;44.20;;;;;;5069246;28;19935;-53
2021/09/02 10:05:51;;;;;;;;;;;45.30;44.90;;;;;;5064899;28;19920;-51
2021/09/02 10:08:56;;;;;;;;;;;46.90;44.90;;;;;;5065978;28;19911;-54
2021/09/02 10:12:04;;;;;;;;;;;46.70;44.20;;;;;;5067715;28;19924;-53
2021/09/02 10:15:13;;;;;;;;;;;43.10;44.90;;;;;;5065309;28;19936;-54
2021/09/02 10:18:18;;;;;;;;;;;44.20;46.10;;;;;;5066986;28;19919;-53
2021/09/02 10:21:23;;;;;;;;;;;43.00;46.20;;;;;;5065947;28;20393;-53
2021/09/02 10:24:37;;;;;;;;;;;43.10;44.80;;;;;;5066363;28;20377;-54
2021/09/02 10:27:42;;;;;;;;;;;41.80;45.90;;;;;;5067664;28;19916;-52
2021/09/02 10:30:47;;;;;;;;;;;44.80;45.40;;;;;;5064461;28;19916;-60
2021/09/02 10:33:51;;;;;;;;;;;47.50;44.00;;;;;;5066812;28;19916;-55
2021/09/02 10:36:56;;;;;;;;;;;49.20;43.30;;;;;;5067478;28;19916;-57
2021/09/02 10:40:05;;;;;;;;;;;42.40;44.20;;;;;;5066299;28;19919;-53
2021/09/02 10:43:09;;;;;;;;;;;43.50;45.10;;;;;;5066965;28;19919;-55
2021/09/02 10:46:24;;;;;;;;;;;45.30;44.60;;;;;;5063970;28;19916;-53
2021/09/02 10:49:35;;;;;;;;;;;46.60;43.30;;;;;;5067164;28;19909;-57
2021/09/02 10:52:42;;;;;;;;;;;45.90;43.30;;;;;;5048046;28;20396;-57
2021/09/02 10:55:49;;;;;;;;;;;40.00;43.10;;;;;;5069157;28;19913;-53
2021/09/02 10:58:54;;;;;;;;;;;35.10;47.40;;;;;;5061043;28;19935;-54
2021/09/02 11:01:58;;;;;;;;;;;34.90;48.90;;;;;;5060329;28;20330;-56
2021/09/02 11:05:04;;;;;;;;;;;38.20;47.30;;;;;;5073903;28;20303;-53
2021/09/02 11:08:09;;;;;;;;;;;35.20;48.80;;;;;;5053793;28;19977;-55
2021/09/02 11:11:20;;;;;;;;;;;38.10;47.70;;;;;;5066107;28;19923;-52
2021/09/02 11:14:25;;;;;;;;;;;39.90;46.60;;;;;;5073107;28;19939;-54
2021/09/02 11:17:29;;;;;;;;;;;41.70;45.00;;;;;;5073622;28;19923;-54
2021/09/02 11:20:35;;;;;;;;;;;38.10;46.20;;;;;;5072025;28;19919;-54
2021/09/02 11:23:40;;;;;;;;;;;35.30;48.70;;;;;;5072449;28;19919;-56
2021/09/02 11:26:45;;;;;;;;;;;39.20;47.50;;;;;;5072826;28;19912;-58
2021/09/02 11:29:50;;;;;;;;;;;41.40;46.10;;;;;;5072016;28;19915;-57
2021/09/02 11:32:59;;;;;;;;;;;42.50;45.20;;;;;;5071390;28;19919;-53
2021/09/02 11:36:04;;;;;;;;;;;43.10;44.20;;;;;;5072620;28;19931;-57
2021/09/02 11:39:09;;;;;;;;;;;44.00;43.80;;;;;;5072297;28;20425;-53
2021/09/02 11:42:13;;;;;;;;;;;45.30;43.20;;;;;;5071483;28;19947;-51
2021/09/02 11:45:17;;;;;;;;;;;40.80;44.60;;;;;;5072303;28;19909;-53
2021/09/02 11:48:22;;;;;;;;;;;41.70;45.50;;;;;;5072280;28;19908;-53
2021/09/02 11:51:34;;;;;;;;;;;38.80;46.10;;;;;;5071423;28;19916;-54
2021/09/02 11:54:38;;;;;;;;;;;41.30;45.10;;;;;;5072253;28;19927;-54
2021/09/02 11:57:42;;;;;;;;;;;41.30;44.30;;;;;;5072692;28;20292;-55
2021/09/02 12:00:57;;;;;;;;;;;39.80;46.10;;;;;;5071059;28;19915;-54
2021/09/02 12:04:02;;;;;;;;;;;39.20;44.70;;;;;;5059540;28;19931;-55
2021/09/02 12:07:06;;;;;;;;;;;35.10;48.50;;;;;;5072598;28;19916;-56
2021/09/02 12:10:11;;;;;;;;;;;34.30;49.20;;;;;;5071459;28;20417;-53
2021/09/02 12:13:34;;;;;;;;;;;38.10;47.50;;;;;;5071539;28;19994;-53
2021/09/02 12:16:40;;;;;;;;;;;38.60;46.40;;;;;;5072235;28;19915;-55
2021/09/02 12:19:50;;;;;;;;;;;40.00;45.30;;;;;;5072233;28;19915;-55
2021/09/02 12:22:55;;;;;;;;;;;40.20;45.30;;;;;;5071259;28;19919;-53
2021/09/02 12:26:03;;;;;;;;;;;39.20;44.70;;;;;;5071343;28;19920;-58
2021/09/02 12:29:11;;;;;;;;;;;40.80;44.80;;;;;;5059680;28;19916;-56
2021/09/02 12:32:17;;;;;;;;;;;41.40;44.10;;;;;;5070500;28;19931;-54
2021/09/02 12:35:21;;;;;;;;;;;43.00;43.00;;;;;;5058593;28;20283;-53
2021/09/02 12:38:36;;;;;;;;;;;44.30;42.70;;;;;;5072059;28;20386;-55
2021/09/02 12:41:41;;;;;;;;;;;45.40;42.60;;;;;;5070856;28;19915;-53
2021/09/02 12:44:46;;;;;;;;;;;45.80;41.60;;;;;;5070926;28;19920;-54
2021/09/02 12:48:02;;;;;;;;;;;45.50;42.40;;;;;;5071580;28;19915;-52
2021/09/02 12:51:20;;;;;;;;;;;37.30;44.30;;;;;;5071273;28;19908;-55
2021/09/02 12:54:26;;;;;;;;;;;40.40;45.20;;;;;;5046537;28;19923;-52
2021/09/02 12:57:34;;;;;;;;;;;38.60;45.60;;;;;;5058300;28;19915;-53
2021/09/02 13:00:39;;;;;;;;;;;41.00;44.70;;;;;;5059116;28;19931;-53
2021/09/02 13:03:42;;;;;;;;;;;36.90;47.00;;;;;;5070423;28;19919;-57
2021/09/02 13:06:46;;;;;;;;;;;37.30;46.10;;;;;;5069802;28;19915;-54
2021/09/02 13:09:51;;;;;;;;;;;39.60;45.90;;;;;;5071442;28;19915;-53
2021/09/02 13:12:56;;;;;;;;;;;40.80;44.60;;;;;;5069380;28;19931;-55
2021/09/02 13:16:01;;;;;;;;;;;35.60;48.20;;;;;;5070119;28;19919;-52
2021/09/02 13:19:07;;;;;;;;;;;33.10;50.30;;;;;;5058757;28;19931;-56
2021/09/02 13:22:12;;;;;;;;;;;34.40;49.20;;;;;;5070308;28;19919;-53
2021/09/02 13:25:17;;;;;;;;;;;35.70;48.20;;;;;;5069846;28;19916;-56
2021/09/02 13:28:20;;;;;;;;;;;38.20;47.30;;;;;;5070845;28;19916;-52
2021/09/02 13:31:24;;;;;;;;;;;37.60;46.20;;;;;;5057945;28;19912;-53
2021/09/02 13:34:29;;;;;;;;;;;35.50;47.50;;;;;;5070131;28;19915;-52
2021/09/02 13:37:34;;;;;;;;;;;34.60;48.30;;;;;;5070395;28;20310;-52
2021/09/02 13:40:39;;;;;;;;;;;33.80;50.20;;;;;;5070844;28;19920;-53
2021/09/02 13:43:43;;;;;;;;;;;34.50;50.10;;;;;;5069708;28;19921;-52
2021/09/02 13:46:47;;;;;;;;;;;36.50;48.00;;;;;;5069985;28;19916;-54
2021/09/02 13:49:51;;;;;;;;;;;35.10;48.70;;;;;;5070564;28;19920;-54
2021/09/02 13:52:55;;;;;;;;;;;33.30;49.20;;;;;;5068884;28;19919;-52
2021/09/02 13:56:00;;;;;;;;;;;33.60;50.30;;;;;;5069373;28;19920;-54
2021/09/02 13:59:04;;;;;;;;;;;34.00;50.40;;;;;;5070308;28;20325;-55
2021/09/02 14:02:10;;;;;;;;;;;33.50;50.80;;;;;;5069088;28;20007;-52
2021/09/02 14:05:14;;;;;;;;;;;32.70;50.70;;;;;;5068939;28;19927;-52
2021/09/02 14:08:18;;;;;;;;;;;32.00;51.20;;;;;;5070060;28;19919;-52
2021/09/02 14:11:22;;;;;;;;;;;31.70;52.30;;;;;;5069169;28;20286;-52
2021/09/02 14:14:26;;;;;;;;;;;31.70;52.40;;;;;;5068973;28;20404;-56
2021/09/02 14:17:30;;;;;;;;;;;31.10;52.50;;;;;;5069679;28;19920;-53
2021/09/02 14:20:34;;;;;;;;;;;31.80;52.30;;;;;;5069314;28;19916;-51
2021/09/02 14:23:38;;;;;;;;;;;31.50;51.50;;;;;;5068529;28;19908;-54
2021/09/02 14:26:42;;;;;;;;;;;32.00;51.80;;;;;;5069689;28;19913;-54
2021/09/02 14:29:47;;;;;;;;;;;31.80;53.00;;;;;;5069940;28;19916;-54
2021/09/02 14:32:52;;;;;;;;;;;31.10;52.80;;;;;;5068464;28;19920;-52
2021/09/02 14:35:56;;;;;;;;;;;31.50;52.60;;;;;;5069489;28;20271;-53
2021/09/02 14:38:59;;;;;;;;;;;30.90;53.60;;;;;;5069517;28;19916;-54
2021/09/02 14:42:04;;;;;;;;;;;30.80;54.40;;;;;;5068624;28;19931;-53
2021/09/02 14:45:09;;;;;;;;;;;30.70;54.70;;;;;;5069247;28;19916;-54
2021/09/02 14:48:13;;;;;;;;;;;29.80;55.50;;;;;;5069594;28;19919;-51
2021/09/02 14:51:18;;;;;;;;;;;29.90;55.30;;;;;;5068353;28;19916;-56
2021/09/02 14:54:22;;;;;;;;;;;30.70;54.30;;;;;;5068597;28;19919;-53
2021/09/02 14:57:25;;;;;;;;;;;30.50;55.30;;;;;;5069761;28;19912;-57
2021/09/02 15:00:29;;;;;;;;;;;29.90;55.50;;;;;;5068926;28;19916;-52
2021/09/02 15:03:34;;;;;;;;;;;29.70;57.30;;;;;;5068520;28;20291;-55
2021/09/02 15:06:39;;;;;;;;;;;30.10;56.70;;;;;;5069658;28;19931;-53
2021/09/02 15:09:43;;;;;;;;;;;30.00;56.60;;;;;;5068523;28;20440;-52
2021/09/02 15:12:47;;;;;;;;;;;30.10;55.50;;;;;;5068160;28;19919;-52
2021/09/02 15:15:52;;;;;;;;;;;30.00;56.00;;;;;;5057332;28;19915;-53
2021/09/02 15:18:56;;;;;;;;;;;29.80;57.00;;;;;;5068789;28;19959;-53
2021/09/02 15:22:00;;;;;;;;;;;29.20;56.90;;;;;;5055717;28;20313;-50
2021/09/02 15:25:05;;;;;;;;;;;29.00;57.30;;;;;;5068997;28;20304;-51
2021/09/02 15:28:09;;;;;;;;;;;29.00;58.00;;;;;;5056625;28;19905;-51
2021/09/02 15:31:13;;;;;;;;;;;29.50;57.20;;;;;;5067984;28;19919;-53
2021/09/02 15:34:19;;;;;;;;;;;29.60;56.80;;;;;;5069427;28;19919;-52
2021/09/02 15:37:24;;;;;;;;;;;29.50;57.30;;;;;;5073541;28;20556;-55
2021/09/02 15:40:28;;;;;;;;;;;28.60;58.20;;;;;;5072216;28;19915;-52
2021/09/02 15:43:32;;;;;;;;;;;28.60;58.30;;;;;;5072336;28;20289;-53
2021/09/02 15:46:37;;;;;;;;;;;28.40;58.70;;;;;;5073362;28;20297;-52
2021/09/02 15:49:40;;;;;;;;;;;28.70;58.90;;;;;;5071704;28;19916;-52
2021/09/02 15:52:45;;;;;;;;;;;28.90;58.60;;;;;;5071607;28;19920;-53
2021/09/02 15:55:49;;;;;;;;;;;28.90;57.90;;;;;;5073180;28;19919;-54
2021/09/02 15:58:55;;;;;;;;;;;28.90;58.30;;;;;;5071809;28;20171;-54
2021/09/02 16:01:59;;;;;;;;;;;28.80;58.50;;;;;;5071870;28;20050;-52
2021/09/02 16:05:03;;;;;;;;;;;28.70;58.90;;;;;;5073082;28;20413;-53
2021/09/02 16:08:08;;;;;;;;;;;28.60;59.40;;;;;;5060230;28;20282;-52
2021/09/02 16:11:12;;;;;;;;;;;28.70;59.30;;;;;;5071706;28;19912;-52
2021/09/02 16:14:16;;;;;;;;;;;28.40;59.70;;;;;;5059734;28;19919;-53
2021/09/02 16:17:20;;;;;;;;;;;28.20;60.10;;;;;;5073413;28;19919;-52
2021/09/02 16:20:26;;;;;;;;;;;27.70;60.50;;;;;;5071214;28;19923;-52
2021/09/02 16:23:31;;;;;;;;;;;27.60;60.80;;;;;;5072547;28;19966;-54
2021/09/02 16:26:37;;;;;;;;;;;27.70;61.10;;;;;;5052612;28;19919;-52
2021/09/02 16:29:40;;;;;;;;;;;27.40;61.30;;;;;;5068293;28;19916;-52
2021/09/02 16:32:44;;;;;;;;;;;27.10;61.40;;;;;;5071196;28;19912;-57
2021/09/02 16:35:50;;;;;;;;;;;27.20;61.50;;;;;;5072277;28;19919;-52
2021/09/02 16:38:55;;;;;;;;;;;27.10;62.00;;;;;;5070779;28;19927;-50
2021/09/02 16:41:59;;;;;;;;;;;27.00;62.70;;;;;;5058536;28;20091;-58
2021/09/02 16:45:05;;;;;;;;;;;27.00;62.50;;;;;;5071858;28;19924;-53
2021/09/02 16:48:09;;;;;;;;;;;27.00;62.70;;;;;;5070960;28;19909;-51
2021/09/02 16:51:15;;;;;;;;;;;26.90;63.20;;;;;;5070169;28;19916;-52
2021/09/02 16:54:20;;;;;;;;;;;26.80;63.50;;;;;;5072142;28;19919;-52
2021/09/02 16:57:24;;;;;;;;;;;26.90;63.70;;;;;;5071472;28;19919;-52
2021/09/02 17:00:28;;;;;;;;;;;27.00;63.50;;;;;;5057760;28;19931;-53
2021/09/02 17:03:33;;;;;;;;;;;27.10;62.90;;;;;;5071846;28;19916;-51
2021/09/02 17:06:37;;;;;;;;;;;27.20;63.00;;;;;;5071417;28;19915;-55
2021/09/02 17:09:41;;;;;;;;;;;27.20;63.30;;;;;;5069890;28;19913;-51
2021/09/02 17:12:45;;;;;;;;;;;26.90;63.70;;;;;;5070484;28;20398;-51
2021/09/02 17:15:49;;;;;;;;;;;26.80;63.90;;;;;;5071236;28;19916;-51
2021/09/02 17:18:53;;;;;;;;;;;26.60;64.10;;;;;;5069986;28;19943;-53
2021/09/02 17:21:57;;;;;;;;;;;26.30;64.00;;;;;;5070220;28;19915;-56
2021/09/02 17:25:02;;;;;;;;;;;26.30;64.20;;;;;;5071150;28;19916;-54
2021/09/02 17:28:06;;;;;;;;;;;26.20;64.30;;;;;;5069739;28;20306;-51
2021/09/02 17:31:10;;;;;;;;;;;26.10;64.60;;;;;;5069410;28;19916;-53
2021/09/02 17:34:14;;;;;;;;;;;25.90;64.70;;;;;;5070998;28;19920;-55
2021/09/02 17:37:19;;;;;;;;;;;25.80;64.70;;;;;;5069840;28;20384;-51
2021/09/02 17:40:23;;;;;;;;;;;25.70;65.40;;;;;;5069283;28;19908;-56
2021/09/02 17:43:27;;;;;;;;;;;25.60;65.70;;;;;;5070687;28;19915;-51
2021/09/02 17:46:32;;;;;;;;;;;25.40;65.70;;;;;;5070032;28;19923;-51
2021/09/02 17:49:37;;;;;;;;;;;25.40;65.70;;;;;;5069118;28;19919;-52
2021/09/02 17:52:42;;;;;;;;;;;25.20;66.10;;;;;;5057885;28;19923;-54
2021/09/02 17:55:46;;;;;;;;;;;25.20;66.10;;;;;;5070502;28;19915;-53